SBMQ/MCP METAR and TAF weather

Enter ICAO airport designator
Station Type Date Time Source
SBMQ METAR 2021/09/16 09:00 UTC NOAA

SBMQ 160900Z 27002KT 9999 SCT017 27/26 Q1014


Station Type Date Time Source
SBMQ Decoded METAR 2021/09/16 09:00 UTC NOAA

Macapa, Brazil (SBMQ) 00-02N 050-03W
Sep 16, 2021 - 05:00 AM EDT / 2021.09.16 0900 UTC
Wind: from the W (270 degrees) at 2 MPH (2 KT):0
Visibility: greater than 7 mile(s):0
Sky conditions: partly cloudy
Temperature: 80 F (27 C)
Dew Point: 78 F (26 C)
Relative Humidity: 94%
Pressure (altimeter): 29.94 in. Hg (1014 hPa)
ob: SBMQ 160900Z 27002KT 9999 SCT017 27/26 Q1014
cycle: 9

Station Type Date Time Source
SBMQ TAF 2021/09/16 12:03 UTC NOAA

TAF SBMQ 160900Z 1612/1712 08007KT 9999 SCT020 TX35/1617Z TN26/1710Z PROB40 1618/1621 4000 TSRA BKN013 FEW025CB
BECMG 1700/1702 05005KT
RMK PGU

Example: see airport list